< < Back
Terminal Aerodrome Forecast


Current Version              Previous Versions:   1  2  3  4  5  6  7  8  9  

Terminal Aerodrome Forecast

648
FTUS42 KTAE 281120
TAFTLH
TAF
KTLH 281120Z 2812/2912 00000KT P6SM SKC
     FM281500 22007KT P6SM SCT060 SCT250=

Latest METAR

294
SAUS80 KWBC 281600 RRB
MTRTLH
METAR KTLH 281553Z 26005KT 10SM FEW035 FEW250 34/22 A3007 RMK AO2 SLP180
T03390222 $


USA.gov is the U.S. government's official web portal to all federal, state and local government web resources and services.